sensor_id;sensor_type;location;lat;lon;timestamp;P1;durP1;ratioP1;P2;durP2;ratioP2
5912;SDS011;2982;42.684;23.356;2022-08-04T00:02:02;11.35;;;10.00;;
5912;SDS011;2982;42.684;23.356;2022-08-04T00:05:18;11.82;;;10.25;;
5912;SDS011;2982;42.684;23.356;2022-08-04T00:07:46;10.65;;;9.85;;
5912;SDS011;2982;42.684;23.356;2022-08-04T00:10:19;11.23;;;10.00;;
5912;SDS011;2982;42.684;23.356;2022-08-04T00:12:47;10.70;;;9.75;;
5912;SDS011;2982;42.684;23.356;2022-08-04T00:15:15;12.02;;;10.45;;
5912;SDS011;2982;42.684;23.356;2022-08-04T00:17:45;11.77;;;10.20;;
5912;SDS011;2982;42.684;23.356;2022-08-04T00:20:17;11.88;;;10.77;;
5912;SDS011;2982;42.684;23.356;2022-08-04T00:22:44;12.90;;;10.15;;
5912;SDS011;2982;42.684;23.356;2022-08-04T00:25:10;11.40;;;10.18;;
5912;SDS011;2982;42.684;23.356;2022-08-04T00:27:36;10.90;;;9.98;;
5912;SDS011;2982;42.684;23.356;2022-08-04T00:30:03;11.52;;;10.50;;
5912;SDS011;2982;42.684;23.356;2022-08-04T00:32:29;12.20;;;9.30;;
5912;SDS011;2982;42.684;23.356;2022-08-04T00:34:56;11.07;;;10.00;;
5912;SDS011;2982;42.684;23.356;2022-08-04T00:37:22;9.98;;;9.15;;
5912;SDS011;2982;42.684;23.356;2022-08-04T00:39:49;13.07;;;8.38;;
5912;SDS011;2982;42.684;23.356;2022-08-04T00:47:52;9.73;;;8.98;;
5912;SDS011;2982;42.684;23.356;2022-08-04T00:53:18;8.88;;;8.27;;
5912;SDS011;2982;42.684;23.356;2022-08-04T01:04:15;7.95;;;7.20;;
5912;SDS011;2982;42.684;23.356;2022-08-04T01:12:20;7.80;;;6.82;;
5912;SDS011;2982;42.684;23.356;2022-08-04T01:17:58;11.85;;;7.45;;
5912;SDS011;2982;42.684;23.356;2022-08-04T01:20:36;7.20;;;6.70;;
5912;SDS011;2982;42.684;23.356;2022-08-04T01:31:17;11.40;;;6.78;;
5912;SDS011;2982;42.684;23.356;2022-08-04T01:33:49;8.88;;;7.97;;
5912;SDS011;2982;42.684;23.356;2022-08-04T01:36:18;7.60;;;7.00;;
5912;SDS011;2982;42.684;23.356;2022-08-04T01:38:48;10.93;;;7.07;;
5912;SDS011;2982;42.684;23.356;2022-08-04T01:41:14;8.82;;;6.90;;
5912;SDS011;2982;42.684;23.356;2022-08-04T01:43:44;7.22;;;6.70;;
5912;SDS011;2982;42.684;23.356;2022-08-04T01:46:11;7.15;;;6.57;;
5912;SDS011;2982;42.684;23.356;2022-08-04T01:48:38;7.57;;;6.57;;
5912;SDS011;2982;42.684;23.356;2022-08-04T01:51:08;6.93;;;6.25;;
5912;SDS011;2982;42.684;23.356;2022-08-04T01:53:37;7.22;;;6.72;;
5912;SDS011;2982;42.684;23.356;2022-08-04T01:56:06;8.15;;;7.60;;
5912;SDS011;2982;42.684;23.356;2022-08-04T01:58:34;7.50;;;7.10;;
5912;SDS011;2982;42.684;23.356;2022-08-04T02:03:26;11.32;;;7.45;;
5912;SDS011;2982;42.684;23.356;2022-08-04T02:05:58;7.35;;;6.88;;
5912;SDS011;2982;42.684;23.356;2022-08-04T02:11:40;9.50;;;7.75;;
5912;SDS011;2982;42.684;23.356;2022-08-04T02:16:49;8.43;;;7.68;;
5912;SDS011;2982;42.684;23.356;2022-08-04T02:22:02;9.52;;;7.15;;
5912;SDS011;2982;42.684;23.356;2022-08-04T02:24:31;11.45;;;7.70;;
5912;SDS011;2982;42.684;23.356;2022-08-04T02:26:57;9.25;;;6.95;;
5912;SDS011;2982;42.684;23.356;2022-08-04T02:29:33;8.00;;;7.30;;
5912;SDS011;2982;42.684;23.356;2022-08-04T02:32:19;7.00;;;6.47;;
5912;SDS011;2982;42.684;23.356;2022-08-04T02:34:53;7.05;;;6.53;;
5912;SDS011;2982;42.684;23.356;2022-08-04T02:37:57;7.40;;;6.88;;
5912;SDS011;2982;42.684;23.356;2022-08-04T02:40:36;7.43;;;7.00;;
5912;SDS011;2982;42.684;23.356;2022-08-04T02:43:04;7.60;;;6.97;;
5912;SDS011;2982;42.684;23.356;2022-08-04T02:45:33;8.57;;;7.03;;
5912;SDS011;2982;42.684;23.356;2022-08-04T02:48:00;8.13;;;7.30;;
5912;SDS011;2982;42.684;23.356;2022-08-04T02:50:27;9.95;;;6.53;;
5912;SDS011;2982;42.684;23.356;2022-08-04T02:52:58;9.70;;;8.27;;
5912;SDS011;2982;42.684;23.356;2022-08-04T02:55:28;7.55;;;7.03;;
5912;SDS011;2982;42.684;23.356;2022-08-04T02:57:54;8.55;;;7.85;;
5912;SDS011;2982;42.684;23.356;2022-08-04T03:00:43;7.07;;;6.47;;
5912;SDS011;2982;42.684;23.356;2022-08-04T03:05:49;9.60;;;6.82;;
5912;SDS011;2982;42.684;23.356;2022-08-04T03:11:51;8.00;;;7.40;;
5912;SDS011;2982;42.684;23.356;2022-08-04T03:14:04;11.02;;;8.00;;
5912;SDS011;2982;42.684;23.356;2022-08-04T03:28:11;9.75;;;7.80;;
5912;SDS011;2982;42.684;23.356;2022-08-04T03:33:59;9.60;;;8.40;;
5912;SDS011;2982;42.684;23.356;2022-08-04T03:36:41;9.35;;;8.57;;
5912;SDS011;2982;42.684;23.356;2022-08-04T03:42:37;8.85;;;8.35;;
5912;SDS011;2982;42.684;23.356;2022-08-04T03:45:21;9.85;;;8.93;;
5912;SDS011;2982;42.684;23.356;2022-08-04T03:53:32;11.00;;;10.05;;
5912;SDS011;2982;42.684;23.356;2022-08-04T03:56:26;11.15;;;9.90;;
5912;SDS011;2982;42.684;23.356;2022-08-04T04:21:50;12.60;;;11.15;;
5912;SDS011;2982;42.684;23.356;2022-08-04T04:32:56;12.68;;;11.43;;
5912;SDS011;2982;42.684;23.356;2022-08-04T04:35:30;12.50;;;11.35;;
5912;SDS011;2982;42.684;23.356;2022-08-04T04:38:20;12.65;;;11.40;;
5912;SDS011;2982;42.684;23.356;2022-08-04T04:41:35;11.90;;;10.35;;
5912;SDS011;2982;42.684;23.356;2022-08-04T04:44:08;14.90;;;10.18;;
5912;SDS011;2982;42.684;23.356;2022-08-04T04:52:21;10.27;;;9.48;;
5912;SDS011;2982;42.684;23.356;2022-08-04T04:54:54;12.07;;;9.93;;
5912;SDS011;2982;42.684;23.356;2022-08-04T04:57:33;11.77;;;10.40;;
5912;SDS011;2982;42.684;23.356;2022-08-04T05:00:09;13.85;;;9.80;;
5912;SDS011;2982;42.684;23.356;2022-08-04T05:11:24;12.95;;;9.45;;
5912;SDS011;2982;42.684;23.356;2022-08-04T05:14:00;8.98;;;8.30;;
5912;SDS011;2982;42.684;23.356;2022-08-04T05:21:46;11.05;;;8.73;;
5912;SDS011;2982;42.684;23.356;2022-08-04T05:24:15;15.85;;;8.38;;
5912;SDS011;2982;42.684;23.356;2022-08-04T05:26:44;12.48;;;7.60;;
5912;SDS011;2982;42.684;23.356;2022-08-04T05:29:20;8.30;;;7.50;;
5912;SDS011;2982;42.684;23.356;2022-08-04T05:31:52;7.38;;;6.78;;
5912;SDS011;2982;42.684;23.356;2022-08-04T05:34:21;7.25;;;6.53;;
5912;SDS011;2982;42.684;23.356;2022-08-04T05:36:55;8.57;;;6.68;;
5912;SDS011;2982;42.684;23.356;2022-08-04T05:39:23;10.25;;;7.07;;
5912;SDS011;2982;42.684;23.356;2022-08-04T05:41:51;6.38;;;5.97;;
5912;SDS011;2982;42.684;23.356;2022-08-04T05:44:17;10.85;;;6.80;;
5912;SDS011;2982;42.684;23.356;2022-08-04T05:46:48;7.15;;;6.53;;
5912;SDS011;2982;42.684;23.356;2022-08-04T05:49:16;7.53;;;6.80;;
5912;SDS011;2982;42.684;23.356;2022-08-04T05:51:46;13.00;;;6.65;;
5912;SDS011;2982;42.684;23.356;2022-08-04T05:54:13;6.65;;;4.97;;
5912;SDS011;2982;42.684;23.356;2022-08-04T05:56:40;9.98;;;5.32;;
5912;SDS011;2982;42.684;23.356;2022-08-04T05:59:06;6.70;;;5.15;;
5912;SDS011;2982;42.684;23.356;2022-08-04T06:01:34;6.00;;;5.32;;
5912;SDS011;2982;42.684;23.356;2022-08-04T06:04:01;10.82;;;5.38;;
5912;SDS011;2982;42.684;23.356;2022-08-04T06:06:28;5.00;;;4.70;;
5912;SDS011;2982;42.684;23.356;2022-08-04T06:08:54;5.32;;;4.50;;
5912;SDS011;2982;42.684;23.356;2022-08-04T06:11:20;8.25;;;5.20;;
5912;SDS011;2982;42.684;23.356;2022-08-04T06:13:50;5.60;;;4.97;;
5912;SDS011;2982;42.684;23.356;2022-08-04T06:16:19;5.82;;;5.28;;
5912;SDS011;2982;42.684;23.356;2022-08-04T06:18:46;9.30;;;5.22;;
5912;SDS011;2982;42.684;23.356;2022-08-04T06:21:14;5.60;;;5.10;;
5912;SDS011;2982;42.684;23.356;2022-08-04T06:23:46;6.63;;;5.18;;
5912;SDS011;2982;42.684;23.356;2022-08-04T06:26:13;7.13;;;6.10;;
5912;SDS011;2982;42.684;23.356;2022-08-04T06:28:40;8.23;;;6.20;;
5912;SDS011;2982;42.684;23.356;2022-08-04T06:31:07;5.63;;;5.22;;
5912;SDS011;2982;42.684;23.356;2022-08-04T06:33:33;11.75;;;6.90;;
5912;SDS011;2982;42.684;23.356;2022-08-04T06:36:03;10.43;;;7.00;;
5912;SDS011;2982;42.684;23.356;2022-08-04T06:38:30;6.80;;;6.20;;
5912;SDS011;2982;42.684;23.356;2022-08-04T06:40:57;8.63;;;6.00;;
5912;SDS011;2982;42.684;23.356;2022-08-04T06:43:24;6.25;;;5.75;;
5912;SDS011;2982;42.684;23.356;2022-08-04T06:45:51;10.48;;;7.70;;
5912;SDS011;2982;42.684;23.356;2022-08-04T06:48:18;11.20;;;8.10;;
5912;SDS011;2982;42.684;23.356;2022-08-04T06:50:46;7.70;;;7.00;;
5912;SDS011;2982;42.684;23.356;2022-08-04T06:53:14;8.90;;;8.05;;
5912;SDS011;2982;42.684;23.356;2022-08-04T06:55:47;9.75;;;7.63;;
5912;SDS011;2982;42.684;23.356;2022-08-04T06:58:13;8.20;;;7.45;;
5912;SDS011;2982;42.684;23.356;2022-08-04T07:00:40;9.57;;;6.97;;
5912;SDS011;2982;42.684;23.356;2022-08-04T07:03:08;7.40;;;6.78;;
5912;SDS011;2982;42.684;23.356;2022-08-04T07:05:34;12.40;;;6.93;;
5912;SDS011;2982;42.684;23.356;2022-08-04T07:08:00;8.90;;;8.20;;
5912;SDS011;2982;42.684;23.356;2022-08-04T07:10:28;14.73;;;7.75;;
5912;SDS011;2982;42.684;23.356;2022-08-04T07:12:55;8.18;;;7.50;;
5912;SDS011;2982;42.684;23.356;2022-08-04T07:15:24;13.55;;;8.38;;
5912;SDS011;2982;42.684;23.356;2022-08-04T07:17:50;40.10;;;16.73;;
5912;SDS011;2982;42.684;23.356;2022-08-04T07:20:16;8.00;;;7.22;;
5912;SDS011;2982;42.684;23.356;2022-08-04T07:22:42;7.60;;;6.88;;
5912;SDS011;2982;42.684;23.356;2022-08-04T07:25:09;10.80;;;6.78;;
5912;SDS011;2982;42.684;23.356;2022-08-04T07:27:35;6.60;;;6.10;;
5912;SDS011;2982;42.684;23.356;2022-08-04T07:30:01;7.57;;;6.85;;
5912;SDS011;2982;42.684;23.356;2022-08-04T07:32:27;7.05;;;6.32;;
5912;SDS011;2982;42.684;23.356;2022-08-04T07:34:53;7.55;;;6.88;;
5912;SDS011;2982;42.684;23.356;2022-08-04T07:37:20;6.72;;;6.05;;
5912;SDS011;2982;42.684;23.356;2022-08-04T07:39:45;7.57;;;6.95;;
5912;SDS011;2982;42.684;23.356;2022-08-04T07:42:10;7.05;;;6.13;;
5912;SDS011;2982;42.684;23.356;2022-08-04T07:44:37;7.10;;;6.50;;
5912;SDS011;2982;42.684;23.356;2022-08-04T07:47:03;7.35;;;6.47;;
5912;SDS011;2982;42.684;23.356;2022-08-04T07:49:31;11.48;;;6.85;;
5912;SDS011;2982;42.684;23.356;2022-08-04T07:51:56;5.82;;;5.32;;
5912;SDS011;2982;42.684;23.356;2022-08-04T07:54:22;7.35;;;5.72;;
5912;SDS011;2982;42.684;23.356;2022-08-04T07:56:47;5.88;;;5.43;;
5912;SDS011;2982;42.684;23.356;2022-08-04T07:59:14;7.13;;;5.47;;
5912;SDS011;2982;42.684;23.356;2022-08-04T08:01:40;8.93;;;6.10;;
5912;SDS011;2982;42.684;23.356;2022-08-04T08:04:06;6.68;;;5.95;;
5912;SDS011;2982;42.684;23.356;2022-08-04T08:06:34;5.53;;;5.10;;
5912;SDS011;2982;42.684;23.356;2022-08-04T08:09:14;5.65;;;5.10;;
5912;SDS011;2982;42.684;23.356;2022-08-04T08:11:41;5.28;;;4.55;;
5912;SDS011;2982;42.684;23.356;2022-08-04T08:14:09;5.47;;;5.07;;
5912;SDS011;2982;42.684;23.356;2022-08-04T08:16:34;6.28;;;5.07;;
5912;SDS011;2982;42.684;23.356;2022-08-04T08:19:00;6.57;;;5.05;;
5912;SDS011;2982;42.684;23.356;2022-08-04T08:21:26;5.93;;;5.43;;
5912;SDS011;2982;42.684;23.356;2022-08-04T08:23:52;6.13;;;4.47;;
5912;SDS011;2982;42.684;23.356;2022-08-04T08:26:18;7.10;;;4.95;;
5912;SDS011;2982;42.684;23.356;2022-08-04T08:28:44;5.85;;;5.20;;
5912;SDS011;2982;42.684;23.356;2022-08-04T08:31:09;5.00;;;4.53;;
5912;SDS011;2982;42.684;23.356;2022-08-04T08:33:34;5.38;;;4.78;;
5912;SDS011;2982;42.684;23.356;2022-08-04T08:36:02;4.75;;;4.45;;
5912;SDS011;2982;42.684;23.356;2022-08-04T08:57:22;5.70;;;3.70;;
5912;SDS011;2982;42.684;23.356;2022-08-04T09:08:30;7.88;;;3.42;;
5912;SDS011;2982;42.684;23.356;2022-08-04T09:11:15;3.63;;;3.30;;
5912;SDS011;2982;42.684;23.356;2022-08-04T09:13:51;4.70;;;3.95;;
5912;SDS011;2982;42.684;23.356;2022-08-04T09:16:30;4.97;;;3.40;;
5912;SDS011;2982;42.684;23.356;2022-08-04T09:21:52;3.60;;;3.40;;
5912;SDS011;2982;42.684;23.356;2022-08-04T09:24:42;3.00;;;2.80;;
5912;SDS011;2982;42.684;23.356;2022-08-04T09:30:04;3.50;;;3.17;;
5912;SDS011;2982;42.684;23.356;2022-08-04T09:32:42;4.25;;;3.80;;
5912;SDS011;2982;42.684;23.356;2022-08-04T09:45:54;5.90;;;4.13;;
5912;SDS011;2982;42.684;23.356;2022-08-04T09:54:24;5.15;;;3.55;;
5912;SDS011;2982;42.684;23.356;2022-08-04T09:57:16;5.28;;;3.42;;
5912;SDS011;2982;42.684;23.356;2022-08-04T10:00:09;5.20;;;3.47;;
5912;SDS011;2982;42.684;23.356;2022-08-04T10:02:41;4.15;;;3.80;;
5912;SDS011;2982;42.684;23.356;2022-08-04T10:05:12;5.97;;;3.53;;
5912;SDS011;2982;42.684;23.356;2022-08-04T10:10:35;3.88;;;3.50;;
5912;SDS011;2982;42.684;23.356;2022-08-04T10:21:30;6.25;;;2.70;;
5912;SDS011;2982;42.684;23.356;2022-08-04T10:27:00;4.88;;;2.78;;
5912;SDS011;2982;42.684;23.356;2022-08-04T10:34:40;3.63;;;2.53;;
5912;SDS011;2982;42.684;23.356;2022-08-04T10:40:09;4.72;;;2.67;;
5912;SDS011;2982;42.684;23.356;2022-08-04T10:42:39;5.47;;;2.75;;
5912;SDS011;2982;42.684;23.356;2022-08-04T10:45:22;5.38;;;2.33;;
5912;SDS011;2982;42.684;23.356;2022-08-04T10:47:58;9.60;;;2.78;;
5912;SDS011;2982;42.684;23.356;2022-08-04T10:50:24;2.95;;;2.65;;
5912;SDS011;2982;42.684;23.356;2022-08-04T10:52:56;2.47;;;2.28;;
5912;SDS011;2982;42.684;23.356;2022-08-04T10:55:41;2.22;;;2.13;;
5912;SDS011;2982;42.684;23.356;2022-08-04T10:58:13;3.35;;;2.05;;
5912;SDS011;2982;42.684;23.356;2022-08-04T11:00:42;3.58;;;1.83;;
5912;SDS011;2982;42.684;23.356;2022-08-04T11:03:19;2.20;;;2.10;;
5912;SDS011;2982;42.684;23.356;2022-08-04T11:05:54;2.63;;;2.05;;
5912;SDS011;2982;42.684;23.356;2022-08-04T11:08:24;1.95;;;1.85;;
5912;SDS011;2982;42.684;23.356;2022-08-04T11:14:18;9.18;;;2.72;;
5912;SDS011;2982;42.684;23.356;2022-08-04T11:16:25;5.50;;;2.13;;
5912;SDS011;2982;42.684;23.356;2022-08-04T11:21:32;2.67;;;1.70;;
5912;SDS011;2982;42.684;23.356;2022-08-04T11:24:18;3.15;;;2.25;;
5912;SDS011;2982;42.684;23.356;2022-08-04T11:27:00;2.63;;;2.05;;
5912;SDS011;2982;42.684;23.356;2022-08-04T11:32:18;1.73;;;1.63;;
5912;SDS011;2982;42.684;23.356;2022-08-04T11:34:51;3.60;;;1.95;;
5912;SDS011;2982;42.684;23.356;2022-08-04T11:37:26;7.97;;;1.90;;
5912;SDS011;2982;42.684;23.356;2022-08-04T11:40:03;2.08;;;1.80;;
5912;SDS011;2982;42.684;23.356;2022-08-04T11:42:52;2.13;;;1.90;;
5912;SDS011;2982;42.684;23.356;2022-08-04T11:45:35;3.63;;;1.55;;
5912;SDS011;2982;42.684;23.356;2022-08-04T11:53:09;1.90;;;1.80;;
5912;SDS011;2982;42.684;23.356;2022-08-04T11:55:38;3.40;;;2.38;;
5912;SDS011;2982;42.684;23.356;2022-08-04T11:58:04;3.70;;;2.20;;
5912;SDS011;2982;42.684;23.356;2022-08-04T12:00:29;6.60;;;2.65;;
5912;SDS011;2982;42.684;23.356;2022-08-04T12:03:18;1.67;;;1.58;;
5912;SDS011;2982;42.684;23.356;2022-08-04T12:14:25;3.58;;;1.98;;
5912;SDS011;2982;42.684;23.356;2022-08-04T12:17:07;2.95;;;2.00;;
5912;SDS011;2982;42.684;23.356;2022-08-04T12:22:18;2.15;;;1.58;;
5912;SDS011;2982;42.684;23.356;2022-08-04T12:30:11;2.10;;;2.00;;
5912;SDS011;2982;42.684;23.356;2022-08-04T12:32:40;4.18;;;1.73;;
5912;SDS011;2982;42.684;23.356;2022-08-04T12:40:22;1.95;;;1.85;;
5912;SDS011;2982;42.684;23.356;2022-08-04T12:43:34;3.33;;;2.10;;
5912;SDS011;2982;42.684;23.356;2022-08-04T12:45:48;1.60;;;1.50;;
5912;SDS011;2982;42.684;23.356;2022-08-04T12:48:14;4.85;;;2.05;;
5912;SDS011;2982;42.684;23.356;2022-08-04T12:50:46;1.80;;;1.70;;
5912;SDS011;2982;42.684;23.356;2022-08-04T12:53:13;1.73;;;1.63;;
5912;SDS011;2982;42.684;23.356;2022-08-04T12:55:44;1.52;;;1.42;;
5912;SDS011;2982;42.684;23.356;2022-08-04T12:58:14;2.22;;;1.80;;
5912;SDS011;2982;42.684;23.356;2022-08-04T13:00:42;3.25;;;1.90;;
5912;SDS011;2982;42.684;23.356;2022-08-04T13:03:14;2.10;;;1.60;;
5912;SDS011;2982;42.684;23.356;2022-08-04T13:05:41;6.93;;;1.98;;
5912;SDS011;2982;42.684;23.356;2022-08-04T13:08:09;6.18;;;2.45;;
5912;SDS011;2982;42.684;23.356;2022-08-04T13:10:39;1.90;;;1.80;;
5912;SDS011;2982;42.684;23.356;2022-08-04T13:13:14;2.50;;;1.80;;
5912;SDS011;2982;42.684;23.356;2022-08-04T13:15:42;2.10;;;1.90;;
5912;SDS011;2982;42.684;23.356;2022-08-04T13:18:17;4.32;;;1.95;;
5912;SDS011;2982;42.684;23.356;2022-08-04T13:20:43;2.35;;;1.98;;
5912;SDS011;2982;42.684;23.356;2022-08-04T13:23:09;2.50;;;1.85;;
5912;SDS011;2982;42.684;23.356;2022-08-04T13:25:41;2.03;;;1.85;;
5912;SDS011;2982;42.684;23.356;2022-08-04T13:28:27;1.85;;;1.75;;
5912;SDS011;2982;42.684;23.356;2022-08-04T13:30:54;1.52;;;1.52;;
5912;SDS011;2982;42.684;23.356;2022-08-04T13:33:26;4.22;;;1.83;;
5912;SDS011;2982;42.684;23.356;2022-08-04T13:35:54;2.28;;;2.08;;
5912;SDS011;2982;42.684;23.356;2022-08-04T13:38:22;3.35;;;1.92;;
5912;SDS011;2982;42.684;23.356;2022-08-04T13:40:49;4.60;;;2.53;;
5912;SDS011;2982;42.684;23.356;2022-08-04T13:43:26;2.33;;;1.90;;
5912;SDS011;2982;42.684;23.356;2022-08-04T13:46:02;2.25;;;2.03;;
5912;SDS011;2982;42.684;23.356;2022-08-04T13:48:31;2.50;;;2.05;;
5912;SDS011;2982;42.684;23.356;2022-08-04T13:51:00;1.83;;;1.73;;
5912;SDS011;2982;42.684;23.356;2022-08-04T13:53:27;1.85;;;1.75;;
5912;SDS011;2982;42.684;23.356;2022-08-04T13:55:53;2.47;;;1.80;;
5912;SDS011;2982;42.684;23.356;2022-08-04T13:58:23;2.90;;;1.95;;
5912;SDS011;2982;42.684;23.356;2022-08-04T14:00:52;2.83;;;2.58;;
5912;SDS011;2982;42.684;23.356;2022-08-04T14:03:36;1.83;;;1.73;;
5912;SDS011;2982;42.684;23.356;2022-08-04T14:06:22;1.90;;;1.80;;
5912;SDS011;2982;42.684;23.356;2022-08-04T14:08:55;3.65;;;2.33;;
5912;SDS011;2982;42.684;23.356;2022-08-04T14:11:29;4.35;;;2.17;;
5912;SDS011;2982;42.684;23.356;2022-08-04T14:13:59;2.20;;;2.10;;
5912;SDS011;2982;42.684;23.356;2022-08-04T14:16:25;3.10;;;2.30;;
5912;SDS011;2982;42.684;23.356;2022-08-04T14:18:57;1.88;;;1.75;;
5912;SDS011;2982;42.684;23.356;2022-08-04T14:21:24;8.40;;;2.38;;
5912;SDS011;2982;42.684;23.356;2022-08-04T14:23:50;4.72;;;1.92;;
5912;SDS011;2982;42.684;23.356;2022-08-04T14:28:48;1.85;;;1.73;;
5912;SDS011;2982;42.684;23.356;2022-08-04T14:31:15;1.95;;;1.85;;
5912;SDS011;2982;42.684;23.356;2022-08-04T14:33:43;2.53;;;2.33;;
5912;SDS011;2982;42.684;23.356;2022-08-04T14:36:10;3.80;;;2.40;;
5912;SDS011;2982;42.684;23.356;2022-08-04T14:38:43;2.70;;;2.50;;
5912;SDS011;2982;42.684;23.356;2022-08-04T14:41:21;2.28;;;1.67;;
5912;SDS011;2982;42.684;23.356;2022-08-04T14:43:52;2.55;;;2.33;;
5912;SDS011;2982;42.684;23.356;2022-08-04T14:46:20;2.42;;;2.22;;
5912;SDS011;2982;42.684;23.356;2022-08-04T14:51:24;2.53;;;1.98;;
5912;SDS011;2982;42.684;23.356;2022-08-04T14:53:50;1.92;;;1.83;;
5912;SDS011;2982;42.684;23.356;2022-08-04T14:56:15;2.85;;;1.95;;
5912;SDS011;2982;42.684;23.356;2022-08-04T14:58:41;2.33;;;2.00;;
5912;SDS011;2982;42.684;23.356;2022-08-04T15:01:07;2.30;;;1.75;;
5912;SDS011;2982;42.684;23.356;2022-08-04T15:03:34;1.83;;;1.73;;
5912;SDS011;2982;42.684;23.356;2022-08-04T15:06:04;2.35;;;1.60;;
5912;SDS011;2982;42.684;23.356;2022-08-04T15:08:30;2.58;;;2.08;;
5912;SDS011;2982;42.684;23.356;2022-08-04T15:10:57;2.20;;;2.10;;
5912;SDS011;2982;42.684;23.356;2022-08-04T15:13:25;2.42;;;2.22;;
5912;SDS011;2982;42.684;23.356;2022-08-04T15:15:51;1.95;;;1.85;;
5912;SDS011;2982;42.684;23.356;2022-08-04T15:18:17;2.33;;;1.85;;
5912;SDS011;2982;42.684;23.356;2022-08-04T15:20:43;2.47;;;2.25;;
5912;SDS011;2982;42.684;23.356;2022-08-04T15:23:08;2.40;;;2.30;;
5912;SDS011;2982;42.684;23.356;2022-08-04T15:25:35;2.15;;;2.05;;
5912;SDS011;2982;42.684;23.356;2022-08-04T15:28:03;5.63;;;1.75;;
5912;SDS011;2982;42.684;23.356;2022-08-04T15:30:31;2.20;;;2.00;;
5912;SDS011;2982;42.684;23.356;2022-08-04T15:32:59;3.88;;;2.13;;
5912;SDS011;2982;42.684;23.356;2022-08-04T15:35:26;2.97;;;2.30;;
5912;SDS011;2982;42.684;23.356;2022-08-04T15:40:27;2.58;;;2.47;;
5912;SDS011;2982;42.684;23.356;2022-08-04T15:45:56;2.70;;;2.40;;
5912;SDS011;2982;42.684;23.356;2022-08-04T15:48:23;5.85;;;2.63;;
5912;SDS011;2982;42.684;23.356;2022-08-04T15:53:20;6.25;;;2.33;;
5912;SDS011;2982;42.684;23.356;2022-08-04T15:55:45;4.97;;;3.90;;
5912;SDS011;2982;42.684;23.356;2022-08-04T15:58:12;3.53;;;2.83;;
5912;SDS011;2982;42.684;23.356;2022-08-04T16:01:21;5.95;;;3.30;;
5912;SDS011;2982;42.684;23.356;2022-08-04T16:06:43;4.15;;;2.95;;
5912;SDS011;2982;42.684;23.356;2022-08-04T16:14:07;3.72;;;3.25;;
5912;SDS011;2982;42.684;23.356;2022-08-04T16:19:05;2.40;;;2.30;;
5912;SDS011;2982;42.684;23.356;2022-08-04T16:21:33;3.47;;;2.72;;
5912;SDS011;2982;42.684;23.356;2022-08-04T16:26:42;2.65;;;2.53;;
5912;SDS011;2982;42.684;23.356;2022-08-04T16:32:05;2.53;;;2.42;;
5912;SDS011;2982;42.684;23.356;2022-08-04T16:34:34;3.45;;;2.58;;
5912;SDS011;2982;42.684;23.356;2022-08-04T16:37:03;2.92;;;2.42;;
5912;SDS011;2982;42.684;23.356;2022-08-04T16:39:29;3.67;;;2.40;;
5912;SDS011;2982;42.684;23.356;2022-08-04T16:41:55;3.15;;;2.38;;
5912;SDS011;2982;42.684;23.356;2022-08-04T16:46:52;3.00;;;2.63;;
5912;SDS011;2982;42.684;23.356;2022-08-04T16:49:17;3.83;;;2.20;;
5912;SDS011;2982;42.684;23.356;2022-08-04T16:51:43;4.55;;;3.00;;
5912;SDS011;2982;42.684;23.356;2022-08-04T16:54:09;3.17;;;2.75;;
5912;SDS011;2982;42.684;23.356;2022-08-04T16:56:35;4.05;;;2.90;;
5912;SDS011;2982;42.684;23.356;2022-08-04T16:59:07;2.90;;;2.80;;
5912;SDS011;2982;42.684;23.356;2022-08-04T17:01:35;5.50;;;2.35;;
5912;SDS011;2982;42.684;23.356;2022-08-04T17:04:02;3.50;;;2.70;;
5912;SDS011;2982;42.684;23.356;2022-08-04T17:06:32;6.97;;;2.30;;
5912;SDS011;2982;42.684;23.356;2022-08-04T17:09:14;3.20;;;3.00;;
5912;SDS011;2982;42.684;23.356;2022-08-04T17:11:41;3.85;;;3.40;;
5912;SDS011;2982;42.684;23.356;2022-08-04T17:14:09;3.33;;;3.13;;
5912;SDS011;2982;42.684;23.356;2022-08-04T17:16:36;3.85;;;3.50;;
5912;SDS011;2982;42.684;23.356;2022-08-04T17:19:03;5.72;;;3.45;;
5912;SDS011;2982;42.684;23.356;2022-08-04T17:21:31;3.60;;;3.38;;
5912;SDS011;2982;42.684;23.356;2022-08-04T17:23:58;3.00;;;2.80;;
5912;SDS011;2982;42.684;23.356;2022-08-04T17:26:25;6.40;;;3.50;;
5912;SDS011;2982;42.684;23.356;2022-08-04T17:28:53;4.07;;;3.20;;
5912;SDS011;2982;42.684;23.356;2022-08-04T17:31:20;2.97;;;2.70;;
5912;SDS011;2982;42.684;23.356;2022-08-04T17:33:47;4.60;;;3.03;;
5912;SDS011;2982;42.684;23.356;2022-08-04T17:36:15;3.03;;;2.72;;
5912;SDS011;2982;42.684;23.356;2022-08-04T17:38:45;4.53;;;3.15;;
5912;SDS011;2982;42.684;23.356;2022-08-04T17:41:13;4.22;;;2.50;;
5912;SDS011;2982;42.684;23.356;2022-08-04T17:43:41;3.72;;;3.28;;
5912;SDS011;2982;42.684;23.356;2022-08-04T17:46:34;4.75;;;3.53;;
5912;SDS011;2982;42.684;23.356;2022-08-04T17:49:10;3.80;;;3.50;;
5912;SDS011;2982;42.684;23.356;2022-08-04T17:54:16;4.32;;;3.90;;
5912;SDS011;2982;42.684;23.356;2022-08-04T17:56:45;4.15;;;3.75;;
5912;SDS011;2982;42.684;23.356;2022-08-04T18:06:51;5.13;;;3.92;;
5912;SDS011;2982;42.684;23.356;2022-08-04T18:09:25;6.53;;;4.07;;
5912;SDS011;2982;42.684;23.356;2022-08-04T18:12:26;6.05;;;4.78;;
5912;SDS011;2982;42.684;23.356;2022-08-04T18:14:52;5.85;;;4.45;;
5912;SDS011;2982;42.684;23.356;2022-08-04T18:20:07;9.18;;;5.60;;
5912;SDS011;2982;42.684;23.356;2022-08-04T18:22:35;5.63;;;5.13;;
5912;SDS011;2982;42.684;23.356;2022-08-04T18:25:01;9.45;;;5.80;;
5912;SDS011;2982;42.684;23.356;2022-08-04T18:27:28;6.03;;;5.45;;
5912;SDS011;2982;42.684;23.356;2022-08-04T18:29:55;10.95;;;6.28;;
5912;SDS011;2982;42.684;23.356;2022-08-04T18:32:21;12.48;;;5.60;;
5912;SDS011;2982;42.684;23.356;2022-08-04T18:34:49;8.32;;;5.22;;
5912;SDS011;2982;42.684;23.356;2022-08-04T18:37:17;10.18;;;6.22;;
5912;SDS011;2982;42.684;23.356;2022-08-04T18:39:46;12.52;;;5.85;;
5912;SDS011;2982;42.684;23.356;2022-08-04T18:42:13;7.18;;;5.50;;
5912;SDS011;2982;42.684;23.356;2022-08-04T18:44:41;7.22;;;5.65;;
5912;SDS011;2982;42.684;23.356;2022-08-04T18:47:07;12.38;;;4.97;;
5912;SDS011;2982;42.684;23.356;2022-08-04T18:49:32;6.28;;;4.45;;
5912;SDS011;2982;42.684;23.356;2022-08-04T18:51:57;4.55;;;4.03;;
5912;SDS011;2982;42.684;23.356;2022-08-04T18:54:23;4.22;;;3.58;;
5912;SDS011;2982;42.684;23.356;2022-08-04T18:56:50;8.95;;;4.70;;
5912;SDS011;2982;42.684;23.356;2022-08-04T18:59:16;4.90;;;3.90;;
5912;SDS011;2982;42.684;23.356;2022-08-04T19:01:42;6.65;;;4.35;;
5912;SDS011;2982;42.684;23.356;2022-08-04T19:04:08;16.35;;;4.05;;
5912;SDS011;2982;42.684;23.356;2022-08-04T19:06:34;10.27;;;4.38;;
5912;SDS011;2982;42.684;23.356;2022-08-04T19:09:04;4.30;;;3.90;;
5912;SDS011;2982;42.684;23.356;2022-08-04T19:11:31;5.65;;;4.13;;
5912;SDS011;2982;42.684;23.356;2022-08-04T19:13:58;4.63;;;3.60;;
5912;SDS011;2982;42.684;23.356;2022-08-04T19:16:28;5.03;;;4.18;;
5912;SDS011;2982;42.684;23.356;2022-08-04T19:18:56;5.30;;;4.78;;
5912;SDS011;2982;42.684;23.356;2022-08-04T19:21:22;5.78;;;4.05;;
5912;SDS011;2982;42.684;23.356;2022-08-04T19:23:47;5.45;;;4.95;;
5912;SDS011;2982;42.684;23.356;2022-08-04T19:26:13;8.93;;;5.05;;
5912;SDS011;2982;42.684;23.356;2022-08-04T19:28:39;6.75;;;4.93;;
5912;SDS011;2982;42.684;23.356;2022-08-04T19:31:08;5.75;;;4.93;;
5912;SDS011;2982;42.684;23.356;2022-08-04T19:33:34;5.97;;;4.85;;
5912;SDS011;2982;42.684;23.356;2022-08-04T19:36:03;8.60;;;5.55;;
5912;SDS011;2982;42.684;23.356;2022-08-04T19:38:29;8.68;;;4.78;;
5912;SDS011;2982;42.684;23.356;2022-08-04T19:40:55;7.65;;;4.97;;
5912;SDS011;2982;42.684;23.356;2022-08-04T19:43:20;19.92;;;5.97;;
5912;SDS011;2982;42.684;23.356;2022-08-04T19:45:45;5.45;;;4.88;;
5912;SDS011;2982;42.684;23.356;2022-08-04T19:48:11;8.63;;;5.30;;
5912;SDS011;2982;42.684;23.356;2022-08-04T19:50:37;6.50;;;4.88;;
5912;SDS011;2982;42.684;23.356;2022-08-04T19:53:02;10.68;;;5.78;;
5912;SDS011;2982;42.684;23.356;2022-08-04T19:55:28;8.75;;;5.03;;